Terminal Aerodrome Forecast
Issued by NWS

Home | Current Version | Previous Version | Text Only | Print | Product List | Glossary On
Versions: 1 2 3 4 5 6 7 8 9 10 11 12 13 14 15 16 17 18 19 20 21
480
FTUS44 KCRP 211720
TAFALI
TAF
KALI 211720Z 2118/2218 16011KT P6SM SCT035
     FM220800 VRB03KT 3/4SM BR VV004
      TEMPO 2211/2214 4SM -SHRA BR BKN011
     FM221500 35014KT P6SM BKN035=

USA.gov is the U.S. government's official web portal to all federal, state and local government web resources and services.